sensor_id;sensor_type;location;lat;lon;timestamp;P1;durP1;ratioP1;P2;durP2;ratioP2
33840;SDS011;20142;28.494;-16.312;2023-02-28T00:03:25;9.32;;;1.02;;
33840;SDS011;20142;28.494;-16.312;2023-02-28T00:08:26;7.07;;;1.40;;
33840;SDS011;20142;28.494;-16.312;2023-02-28T00:13:28;9.82;;;1.30;;
33840;SDS011;20142;28.494;-16.312;2023-02-28T00:18:30;6.97;;;1.27;;
33840;SDS011;20142;28.494;-16.312;2023-02-28T00:23:31;8.60;;;1.33;;
33840;SDS011;20142;28.494;-16.312;2023-02-28T00:28:33;5.55;;;1.40;;
33840;SDS011;20142;28.494;-16.312;2023-02-28T00:33:35;7.00;;;1.20;;
33840;SDS011;20142;28.494;-16.312;2023-02-28T00:38:37;5.45;;;1.27;;
33840;SDS011;20142;28.494;-16.312;2023-02-28T00:43:41;4.57;;;1.20;;
33840;SDS011;20142;28.494;-16.312;2023-02-28T00:48:43;5.70;;;1.42;;
33840;SDS011;20142;28.494;-16.312;2023-02-28T00:53:44;7.00;;;1.55;;
33840;SDS011;20142;28.494;-16.312;2023-02-28T00:58:46;8.15;;;1.42;;
33840;SDS011;20142;28.494;-16.312;2023-02-28T01:03:48;9.07;;;1.23;;
33840;SDS011;20142;28.494;-16.312;2023-02-28T01:08:49;7.03;;;1.27;;
33840;SDS011;20142;28.494;-16.312;2023-02-28T01:13:51;9.98;;;1.30;;
33840;SDS011;20142;28.494;-16.312;2023-02-28T01:18:53;8.38;;;1.58;;
33840;SDS011;20142;28.494;-16.312;2023-02-28T01:23:56;7.68;;;1.35;;
33840;SDS011;20142;28.494;-16.312;2023-02-28T01:28:58;11.63;;;2.10;;
33840;SDS011;20142;28.494;-16.312;2023-02-28T01:34:00;6.63;;;1.20;;
33840;SDS011;20142;28.494;-16.312;2023-02-28T01:39:02;7.45;;;1.52;;
33840;SDS011;20142;28.494;-16.312;2023-02-28T01:44:55;7.25;;;1.20;;
33840;SDS011;20142;28.494;-16.312;2023-02-28T01:50:09;9.18;;;1.52;;
33840;SDS011;20142;28.494;-16.312;2023-02-28T01:55:20;7.95;;;1.10;;
33840;SDS011;20142;28.494;-16.312;2023-02-28T02:00:25;8.40;;;1.40;;
33840;SDS011;20142;28.494;-16.312;2023-02-28T02:05:30;12.18;;;1.55;;
33840;SDS011;20142;28.494;-16.312;2023-02-28T02:10:41;10.05;;;1.38;;
33840;SDS011;20142;28.494;-16.312;2023-02-28T02:43:36;8.82;;;1.48;;
33840;SDS011;20142;28.494;-16.312;2023-02-28T02:48:48;8.77;;;1.38;;
33840;SDS011;20142;28.494;-16.312;2023-02-28T02:54:36;8.93;;;1.48;;
33840;SDS011;20142;28.494;-16.312;2023-02-28T02:59:22;8.18;;;1.65;;
33840;SDS011;20142;28.494;-16.312;2023-02-28T03:04:25;11.27;;;1.70;;
33840;SDS011;20142;28.494;-16.312;2023-02-28T03:09:33;13.30;;;1.75;;
33840;SDS011;20142;28.494;-16.312;2023-02-28T03:36:22;10.25;;;1.60;;
33840;SDS011;20142;28.494;-16.312;2023-02-28T03:41:51;6.88;;;1.35;;
33840;SDS011;20142;28.494;-16.312;2023-02-28T03:47:00;8.07;;;1.38;;
33840;SDS011;20142;28.494;-16.312;2023-02-28T03:52:07;10.48;;;1.65;;
33840;SDS011;20142;28.494;-16.312;2023-02-28T03:57:12;11.52;;;1.70;;
33840;SDS011;20142;28.494;-16.312;2023-02-28T04:02:31;11.15;;;1.85;;
33840;SDS011;20142;28.494;-16.312;2023-02-28T04:07:34;9.63;;;1.40;;
33840;SDS011;20142;28.494;-16.312;2023-02-28T04:12:36;14.35;;;2.08;;
33840;SDS011;20142;28.494;-16.312;2023-02-28T04:17:37;7.00;;;1.60;;
33840;SDS011;20142;28.494;-16.312;2023-02-28T04:22:39;13.80;;;2.47;;
33840;SDS011;20142;28.494;-16.312;2023-02-28T04:27:41;13.35;;;2.00;;
33840;SDS011;20142;28.494;-16.312;2023-02-28T04:32:45;4.97;;;1.75;;
33840;SDS011;20142;28.494;-16.312;2023-02-28T04:37:47;10.45;;;2.08;;
33840;SDS011;20142;28.494;-16.312;2023-02-28T04:42:48;5.97;;;1.30;;
33840;SDS011;20142;28.494;-16.312;2023-02-28T04:47:50;9.55;;;1.42;;
33840;SDS011;20142;28.494;-16.312;2023-02-28T04:52:51;9.88;;;1.67;;
33840;SDS011;20142;28.494;-16.312;2023-02-28T04:57:53;13.55;;;1.10;;
33840;SDS011;20142;28.494;-16.312;2023-02-28T05:02:55;9.45;;;1.30;;
33840;SDS011;20142;28.494;-16.312;2023-02-28T05:07:56;7.53;;;1.50;;
33840;SDS011;20142;28.494;-16.312;2023-02-28T05:12:58;8.75;;;1.38;;
33840;SDS011;20142;28.494;-16.312;2023-02-28T05:18:00;7.15;;;1.35;;
33840;SDS011;20142;28.494;-16.312;2023-02-28T05:23:01;8.75;;;1.67;;
33840;SDS011;20142;28.494;-16.312;2023-02-28T05:28:04;9.73;;;1.70;;
33840;SDS011;20142;28.494;-16.312;2023-02-28T05:33:06;9.73;;;1.95;;
33840;SDS011;20142;28.494;-16.312;2023-02-28T05:38:08;8.82;;;1.67;;
33840;SDS011;20142;28.494;-16.312;2023-02-28T05:43:10;7.53;;;1.80;;
33840;SDS011;20142;28.494;-16.312;2023-02-28T05:48:12;7.78;;;1.65;;
33840;SDS011;20142;28.494;-16.312;2023-02-28T05:53:14;3.80;;;1.33;;
33840;SDS011;20142;28.494;-16.312;2023-02-28T05:58:16;14.88;;;1.30;;
33840;SDS011;20142;28.494;-16.312;2023-02-28T06:03:17;9.15;;;1.42;;
33840;SDS011;20142;28.494;-16.312;2023-02-28T06:08:19;10.50;;;2.00;;
33840;SDS011;20142;28.494;-16.312;2023-02-28T06:13:21;8.20;;;1.35;;
33840;SDS011;20142;28.494;-16.312;2023-02-28T06:18:23;10.82;;;1.83;;
33840;SDS011;20142;28.494;-16.312;2023-02-28T06:23:24;13.75;;;2.08;;
33840;SDS011;20142;28.494;-16.312;2023-02-28T06:28:26;11.93;;;1.50;;
33840;SDS011;20142;28.494;-16.312;2023-02-28T06:33:27;7.70;;;1.55;;
33840;SDS011;20142;28.494;-16.312;2023-02-28T06:38:29;8.90;;;1.73;;
33840;SDS011;20142;28.494;-16.312;2023-02-28T06:43:33;14.77;;;1.90;;
33840;SDS011;20142;28.494;-16.312;2023-02-28T06:48:38;15.45;;;2.40;;
33840;SDS011;20142;28.494;-16.312;2023-02-28T06:53:40;15.43;;;2.00;;
33840;SDS011;20142;28.494;-16.312;2023-02-28T06:58:45;8.30;;;1.50;;
33840;SDS011;20142;28.494;-16.312;2023-02-28T07:03:49;13.13;;;2.10;;
33840;SDS011;20142;28.494;-16.312;2023-02-28T07:08:53;12.65;;;1.83;;
33840;SDS011;20142;28.494;-16.312;2023-02-28T07:13:55;10.38;;;1.63;;
33840;SDS011;20142;28.494;-16.312;2023-02-28T07:18:57;13.57;;;1.80;;
33840;SDS011;20142;28.494;-16.312;2023-02-28T07:23:59;13.45;;;2.22;;
33840;SDS011;20142;28.494;-16.312;2023-02-28T07:29:01;19.85;;;2.35;;
33840;SDS011;20142;28.494;-16.312;2023-02-28T07:34:02;11.48;;;1.98;;
33840;SDS011;20142;28.494;-16.312;2023-02-28T07:39:05;7.80;;;1.40;;
33840;SDS011;20142;28.494;-16.312;2023-02-28T07:44:06;16.48;;;2.15;;
33840;SDS011;20142;28.494;-16.312;2023-02-28T07:49:09;13.00;;;2.05;;
33840;SDS011;20142;28.494;-16.312;2023-02-28T07:54:11;7.25;;;2.35;;
33840;SDS011;20142;28.494;-16.312;2023-02-28T07:59:12;11.15;;;2.00;;
33840;SDS011;20142;28.494;-16.312;2023-02-28T08:04:14;9.35;;;1.95;;
33840;SDS011;20142;28.494;-16.312;2023-02-28T08:09:15;8.32;;;1.77;;
33840;SDS011;20142;28.494;-16.312;2023-02-28T08:14:17;9.02;;;1.48;;
33840;SDS011;20142;28.494;-16.312;2023-02-28T08:19:19;2.03;;;0.77;;
33840;SDS011;20142;28.494;-16.312;2023-02-28T08:24:21;7.43;;;1.08;;
33840;SDS011;20142;28.494;-16.312;2023-02-28T08:29:23;4.88;;;1.10;;
33840;SDS011;20142;28.494;-16.312;2023-02-28T08:34:24;5.30;;;1.13;;
33840;SDS011;20142;28.494;-16.312;2023-02-28T08:39:26;4.93;;;1.10;;
33840;SDS011;20142;28.494;-16.312;2023-02-28T08:44:28;5.28;;;1.35;;
33840;SDS011;20142;28.494;-16.312;2023-02-28T08:49:29;5.18;;;1.48;;
33840;SDS011;20142;28.494;-16.312;2023-02-28T08:54:31;4.93;;;0.95;;
33840;SDS011;20142;28.494;-16.312;2023-02-28T08:59:34;7.93;;;1.45;;
33840;SDS011;20142;28.494;-16.312;2023-02-28T09:04:35;5.53;;;0.80;;
33840;SDS011;20142;28.494;-16.312;2023-02-28T09:09:37;5.38;;;0.80;;
33840;SDS011;20142;28.494;-16.312;2023-02-28T09:14:54;10.68;;;1.20;;
33840;SDS011;20142;28.494;-16.312;2023-02-28T09:19:55;5.53;;;1.15;;
33840;SDS011;20142;28.494;-16.312;2023-02-28T09:24:57;6.93;;;0.90;;
33840;SDS011;20142;28.494;-16.312;2023-02-28T09:29:59;2.72;;;0.65;;
33840;SDS011;20142;28.494;-16.312;2023-02-28T09:35:00;4.07;;;0.65;;
33840;SDS011;20142;28.494;-16.312;2023-02-28T09:40:02;6.78;;;1.10;;
33840;SDS011;20142;28.494;-16.312;2023-02-28T09:56:21;5.18;;;1.00;;
33840;SDS011;20142;28.494;-16.312;2023-02-28T10:01:36;4.05;;;0.93;;
33840;SDS011;20142;28.494;-16.312;2023-02-28T10:06:46;9.25;;;1.20;;
33840;SDS011;20142;28.494;-16.312;2023-02-28T10:11:52;7.50;;;0.88;;
33840;SDS011;20142;28.494;-16.312;2023-02-28T10:17:11;5.07;;;0.90;;
33840;SDS011;20142;28.494;-16.312;2023-02-28T10:28:16;9.18;;;1.30;;
33840;SDS011;20142;28.494;-16.312;2023-02-28T10:33:34;9.10;;;1.17;;
33840;SDS011;20142;28.494;-16.312;2023-02-28T10:38:37;10.30;;;1.45;;
33840;SDS011;20142;28.494;-16.312;2023-02-28T10:43:41;6.03;;;0.82;;
33840;SDS011;20142;28.494;-16.312;2023-02-28T10:48:47;11.90;;;1.40;;
33840;SDS011;20142;28.494;-16.312;2023-02-28T10:54:18;10.18;;;1.92;;
33840;SDS011;20142;28.494;-16.312;2023-02-28T10:59:29;11.57;;;1.65;;
33840;SDS011;20142;28.494;-16.312;2023-02-28T11:04:33;13.77;;;2.00;;
33840;SDS011;20142;28.494;-16.312;2023-02-28T11:09:39;10.80;;;1.60;;
33840;SDS011;20142;28.494;-16.312;2023-02-28T11:14:47;12.95;;;2.20;;
33840;SDS011;20142;28.494;-16.312;2023-02-28T11:20:01;8.10;;;1.73;;
33840;SDS011;20142;28.494;-16.312;2023-02-28T11:25:09;10.45;;;2.00;;
33840;SDS011;20142;28.494;-16.312;2023-02-28T11:30:32;6.90;;;1.80;;
33840;SDS011;20142;28.494;-16.312;2023-02-28T11:35:39;10.75;;;2.00;;
33840;SDS011;20142;28.494;-16.312;2023-02-28T11:40:50;8.23;;;1.48;;
33840;SDS011;20142;28.494;-16.312;2023-02-28T11:51:53;7.20;;;1.77;;
33840;SDS011;20142;28.494;-16.312;2023-02-28T12:20:14;13.18;;;1.60;;
33840;SDS011;20142;28.494;-16.312;2023-02-28T12:31:18;11.05;;;1.98;;
33840;SDS011;20142;28.494;-16.312;2023-02-28T12:36:25;11.88;;;2.30;;
33840;SDS011;20142;28.494;-16.312;2023-02-28T12:41:33;11.25;;;1.92;;
33840;SDS011;20142;28.494;-16.312;2023-02-28T12:46:55;10.63;;;2.00;;
33840;SDS011;20142;28.494;-16.312;2023-02-28T12:52:02;11.30;;;1.52;;
33840;SDS011;20142;28.494;-16.312;2023-02-28T13:08:46;6.35;;;1.20;;
33840;SDS011;20142;28.494;-16.312;2023-02-28T13:19:32;4.85;;;0.93;;
33840;SDS011;20142;28.494;-16.312;2023-02-28T13:29:55;9.82;;;2.15;;
33840;SDS011;20142;28.494;-16.312;2023-02-28T13:39:59;18.75;;;2.60;;
33840;SDS011;20142;28.494;-16.312;2023-02-28T13:56:03;15.32;;;2.15;;
33840;SDS011;20142;28.494;-16.312;2023-02-28T14:06:47;11.68;;;2.35;;
33840;SDS011;20142;28.494;-16.312;2023-02-28T14:11:52;16.25;;;2.92;;
33840;SDS011;20142;28.494;-16.312;2023-02-28T14:16:54;16.60;;;2.20;;
33840;SDS011;20142;28.494;-16.312;2023-02-28T14:22:12;19.15;;;2.42;;
33840;SDS011;20142;28.494;-16.312;2023-02-28T14:38:31;11.48;;;2.45;;
33840;SDS011;20142;28.494;-16.312;2023-02-28T14:43:53;20.27;;;2.42;;
33840;SDS011;20142;28.494;-16.312;2023-02-28T14:49:01;12.95;;;2.15;;
33840;SDS011;20142;28.494;-16.312;2023-02-28T14:54:05;13.90;;;2.78;;
33840;SDS011;20142;28.494;-16.312;2023-02-28T14:59:26;15.82;;;3.03;;
33840;SDS011;20142;28.494;-16.312;2023-02-28T15:04:36;8.40;;;1.87;;
33840;SDS011;20142;28.494;-16.312;2023-02-28T15:09:38;10.82;;;2.25;;
33840;SDS011;20142;28.494;-16.312;2023-02-28T15:14:39;9.10;;;2.22;;
33840;SDS011;20142;28.494;-16.312;2023-02-28T15:19:44;10.40;;;2.22;;
33840;SDS011;20142;28.494;-16.312;2023-02-28T15:24:52;6.90;;;1.90;;
33840;SDS011;20142;28.494;-16.312;2023-02-28T15:29:56;9.98;;;2.50;;
33840;SDS011;20142;28.494;-16.312;2023-02-28T15:40:29;10.80;;;2.22;;
33840;SDS011;20142;28.494;-16.312;2023-02-28T15:45:38;12.02;;;2.47;;
33840;SDS011;20142;28.494;-16.312;2023-02-28T15:50:56;10.23;;;2.40;;
33840;SDS011;20142;28.494;-16.312;2023-02-28T15:56:29;10.13;;;2.30;;
33840;SDS011;20142;28.494;-16.312;2023-02-28T16:01:34;7.78;;;1.65;;
33840;SDS011;20142;28.494;-16.312;2023-02-28T16:06:39;7.32;;;1.95;;
33840;SDS011;20142;28.494;-16.312;2023-02-28T16:11:55;8.48;;;2.13;;
33840;SDS011;20142;28.494;-16.312;2023-02-28T16:17:05;8.43;;;2.10;;
33840;SDS011;20142;28.494;-16.312;2023-02-28T16:22:17;10.07;;;1.95;;
33840;SDS011;20142;28.494;-16.312;2023-02-28T16:27:20;12.70;;;2.03;;
33840;SDS011;20142;28.494;-16.312;2023-02-28T16:32:30;9.77;;;2.38;;
33840;SDS011;20142;28.494;-16.312;2023-02-28T16:37:35;6.43;;;2.17;;
33840;SDS011;20142;28.494;-16.312;2023-02-28T16:42:38;13.70;;;2.85;;
33840;SDS011;20142;28.494;-16.312;2023-02-28T16:47:41;5.45;;;1.88;;
33840;SDS011;20142;28.494;-16.312;2023-02-28T16:52:42;11.82;;;2.03;;
33840;SDS011;20142;28.494;-16.312;2023-02-28T16:57:44;7.85;;;1.80;;
33840;SDS011;20142;28.494;-16.312;2023-02-28T17:02:53;10.77;;;2.50;;
33840;SDS011;20142;28.494;-16.312;2023-02-28T17:07:55;7.05;;;1.90;;
33840;SDS011;20142;28.494;-16.312;2023-02-28T17:12:57;7.80;;;1.60;;
33840;SDS011;20142;28.494;-16.312;2023-02-28T17:17:59;6.63;;;2.00;;
33840;SDS011;20142;28.494;-16.312;2023-02-28T17:23:01;5.38;;;1.23;;
33840;SDS011;20142;28.494;-16.312;2023-02-28T17:28:03;3.50;;;0.90;;
33840;SDS011;20142;28.494;-16.312;2023-02-28T17:33:05;8.40;;;2.30;;
33840;SDS011;20142;28.494;-16.312;2023-02-28T17:38:16;4.60;;;1.00;;
33840;SDS011;20142;28.494;-16.312;2023-02-28T17:43:19;3.83;;;1.10;;
33840;SDS011;20142;28.494;-16.312;2023-02-28T17:48:21;5.80;;;1.25;;
33840;SDS011;20142;28.494;-16.312;2023-02-28T17:53:23;3.42;;;0.90;;
33840;SDS011;20142;28.494;-16.312;2023-02-28T17:58:24;7.65;;;1.33;;
33840;SDS011;20142;28.494;-16.312;2023-02-28T18:03:26;3.33;;;0.95;;
33840;SDS011;20142;28.494;-16.312;2023-02-28T18:08:28;6.55;;;0.95;;
33840;SDS011;20142;28.494;-16.312;2023-02-28T18:13:31;10.77;;;1.90;;
33840;SDS011;20142;28.494;-16.312;2023-02-28T18:18:34;8.00;;;2.20;;
33840;SDS011;20142;28.494;-16.312;2023-02-28T18:23:38;13.20;;;1.92;;
33840;SDS011;20142;28.494;-16.312;2023-02-28T18:28:47;9.80;;;2.00;;
33840;SDS011;20142;28.494;-16.312;2023-02-28T18:33:49;13.55;;;2.13;;
33840;SDS011;20142;28.494;-16.312;2023-02-28T18:38:52;8.90;;;1.92;;
33840;SDS011;20142;28.494;-16.312;2023-02-28T18:43:54;4.22;;;1.48;;
33840;SDS011;20142;28.494;-16.312;2023-02-28T18:48:56;10.05;;;1.40;;
33840;SDS011;20142;28.494;-16.312;2023-02-28T18:53:59;9.02;;;1.65;;
33840;SDS011;20142;28.494;-16.312;2023-02-28T18:59:00;13.25;;;2.60;;
33840;SDS011;20142;28.494;-16.312;2023-02-28T19:04:04;19.02;;;3.50;;
33840;SDS011;20142;28.494;-16.312;2023-02-28T19:09:06;20.55;;;3.33;;
33840;SDS011;20142;28.494;-16.312;2023-02-28T19:14:08;12.15;;;1.98;;
33840;SDS011;20142;28.494;-16.312;2023-02-28T19:19:10;10.35;;;2.22;;
33840;SDS011;20142;28.494;-16.312;2023-02-28T19:24:12;16.17;;;2.70;;
33840;SDS011;20142;28.494;-16.312;2023-02-28T19:29:14;11.60;;;2.20;;
33840;SDS011;20142;28.494;-16.312;2023-02-28T19:34:15;14.20;;;2.65;;
33840;SDS011;20142;28.494;-16.312;2023-02-28T19:39:17;11.63;;;2.08;;
33840;SDS011;20142;28.494;-16.312;2023-02-28T19:44:19;16.38;;;2.28;;
33840;SDS011;20142;28.494;-16.312;2023-02-28T19:49:20;10.43;;;1.90;;
33840;SDS011;20142;28.494;-16.312;2023-02-28T19:54:22;9.15;;;1.25;;
33840;SDS011;20142;28.494;-16.312;2023-02-28T19:59:25;9.90;;;1.90;;
33840;SDS011;20142;28.494;-16.312;2023-02-28T20:04:28;9.95;;;1.85;;
33840;SDS011;20142;28.494;-16.312;2023-02-28T20:09:30;10.35;;;1.55;;
33840;SDS011;20142;28.494;-16.312;2023-02-28T20:14:31;13.13;;;1.88;;
33840;SDS011;20142;28.494;-16.312;2023-02-28T20:19:33;12.45;;;2.10;;
33840;SDS011;20142;28.494;-16.312;2023-02-28T20:24:36;18.83;;;2.83;;
33840;SDS011;20142;28.494;-16.312;2023-02-28T20:29:38;20.85;;;3.20;;
33840;SDS011;20142;28.494;-16.312;2023-02-28T20:34:39;20.52;;;3.40;;
33840;SDS011;20142;28.494;-16.312;2023-02-28T20:39:41;24.30;;;4.18;;
33840;SDS011;20142;28.494;-16.312;2023-02-28T20:44:43;19.17;;;3.45;;
33840;SDS011;20142;28.494;-16.312;2023-02-28T20:49:45;17.73;;;3.13;;
33840;SDS011;20142;28.494;-16.312;2023-02-28T20:54:46;18.52;;;3.38;;
33840;SDS011;20142;28.494;-16.312;2023-02-28T20:59:48;11.18;;;2.83;;
33840;SDS011;20142;28.494;-16.312;2023-02-28T21:04:50;18.55;;;2.88;;
33840;SDS011;20142;28.494;-16.312;2023-02-28T21:09:52;10.60;;;2.33;;
33840;SDS011;20142;28.494;-16.312;2023-02-28T21:14:55;12.18;;;2.78;;
33840;SDS011;20142;28.494;-16.312;2023-02-28T21:19:57;15.93;;;2.40;;
33840;SDS011;20142;28.494;-16.312;2023-02-28T21:24:58;15.25;;;2.47;;
33840;SDS011;20142;28.494;-16.312;2023-02-28T21:30:00;8.55;;;2.00;;
33840;SDS011;20142;28.494;-16.312;2023-02-28T21:35:02;16.40;;;2.25;;
33840;SDS011;20142;28.494;-16.312;2023-02-28T21:40:04;9.40;;;1.67;;
33840;SDS011;20142;28.494;-16.312;2023-02-28T21:45:08;8.70;;;1.50;;
33840;SDS011;20142;28.494;-16.312;2023-02-28T21:50:10;6.60;;;1.50;;
33840;SDS011;20142;28.494;-16.312;2023-02-28T21:55:11;8.98;;;1.35;;
33840;SDS011;20142;28.494;-16.312;2023-02-28T22:00:13;9.07;;;1.40;;
33840;SDS011;20142;28.494;-16.312;2023-02-28T22:05:16;8.45;;;1.20;;
33840;SDS011;20142;28.494;-16.312;2023-02-28T22:10:18;12.43;;;1.42;;
33840;SDS011;20142;28.494;-16.312;2023-02-28T22:15:20;5.80;;;1.65;;
33840;SDS011;20142;28.494;-16.312;2023-02-28T22:20:21;9.43;;;1.40;;
33840;SDS011;20142;28.494;-16.312;2023-02-28T22:25:23;9.35;;;1.40;;
33840;SDS011;20142;28.494;-16.312;2023-02-28T22:30:25;6.07;;;1.20;;
33840;SDS011;20142;28.494;-16.312;2023-02-28T22:35:28;7.88;;;1.20;;
33840;SDS011;20142;28.494;-16.312;2023-02-28T22:40:29;7.18;;;1.15;;
33840;SDS011;20142;28.494;-16.312;2023-02-28T22:45:34;8.02;;;1.52;;
33840;SDS011;20142;28.494;-16.312;2023-02-28T22:50:37;7.38;;;1.52;;
33840;SDS011;20142;28.494;-16.312;2023-02-28T22:55:39;9.15;;;0.90;;
33840;SDS011;20142;28.494;-16.312;2023-02-28T23:00:40;8.43;;;1.27;;
33840;SDS011;20142;28.494;-16.312;2023-02-28T23:05:42;6.28;;;1.15;;
33840;SDS011;20142;28.494;-16.312;2023-02-28T23:10:44;8.10;;;1.08;;
33840;SDS011;20142;28.494;-16.312;2023-02-28T23:15:46;4.53;;;1.15;;
33840;SDS011;20142;28.494;-16.312;2023-02-28T23:20:48;6.47;;;1.35;;
33840;SDS011;20142;28.494;-16.312;2023-02-28T23:25:49;5.78;;;1.00;;
33840;SDS011;20142;28.494;-16.312;2023-02-28T23:30:51;7.30;;;1.17;;
33840;SDS011;20142;28.494;-16.312;2023-02-28T23:35:52;11.60;;;1.38;;
33840;SDS011;20142;28.494;-16.312;2023-02-28T23:40:54;6.55;;;1.00;;
33840;SDS011;20142;28.494;-16.312;2023-02-28T23:45:56;5.97;;;1.05;;
33840;SDS011;20142;28.494;-16.312;2023-02-28T23:51:05;7.20;;;1.15;;
33840;SDS011;20142;28.494;-16.312;2023-02-28T23:56:15;5.88;;;0.70;;
